Time;durP1;ratioP1;P1;durP2;ratioP2;P2;SDS_P1;SDS_P2;PMS_P1;PMS_P2;Temp;Humidity;BMP_temperature;BMP_pressure;BME280_temperature;BME280_humidity;BME280_pressure;Samples;Min_cycle;Max_cycle;Signal;HPM_P1;HPM_P2
2022/07/05 00:02:01;;;;;;;;;;;17.70;1.00;;;;;;10494007;27;84682;-51
2022/07/05 00:07:17;;;;;;;;;;;17.70;1.00;;;;;;10494517;27;83962;-50
2022/07/05 00:12:19;;;;;;;;;;;17.70;1.00;;;;;;10494145;27;84376;-54
2022/07/05 00:17:19;;;;;;;;;;;17.70;1.00;;;;;;10490393;27;86163;-48
2022/07/05 00:22:20;;;;;;;;;;;17.70;1.00;;;;;;10491731;27;83695;-49
2022/07/05 00:27:20;;;;;;;;;;;17.80;1.00;;;;;;10491169;27;83832;-50
2022/07/05 00:32:21;;;;;;;;;;;17.80;1.00;;;;;;10491300;27;83850;-52
2022/07/05 00:37:21;;;;;;;;;;;17.90;1.00;;;;;;10506658;27;85377;-52
2022/07/05 00:42:22;;;;;;;;;;;17.90;1.00;;;;;;10489517;27;85233;-54
2022/07/05 00:47:23;;;;;;;;;;;17.90;1.00;;;;;;10491217;27;84083;-48
2022/07/05 00:52:23;;;;;;;;;;;17.90;1.00;;;;;;10490591;27;83817;-49
2022/07/05 00:57:24;;;;;;;;;;;17.90;1.00;;;;;;10489658;27;85982;-49
2022/07/05 01:02:24;;;;;;;;;;;17.90;1.00;;;;;;10491805;27;83836;-52
2022/07/05 01:07:25;;;;;;;;;;;17.90;1.00;;;;;;10491177;27;84103;-52
2022/07/05 01:12:26;;;;;;;;;;;17.90;1.00;;;;;;10491536;27;83263;-50
2022/07/05 01:17:27;;;;;;;;;;;17.80;1.00;;;;;;10490776;27;84070;-51
2022/07/05 01:22:28;;;;;;;;;;;17.80;1.00;;;;;;10498708;27;83225;-51
2022/07/05 01:27:29;;;;;;;;;;;17.80;1.00;;;;;;10479089;27;85344;-48
2022/07/05 01:32:29;;;;;;;;;;;17.70;19.50;;;;;;10497871;27;84078;-50
2022/07/05 01:37:30;;;;;;;;;;;17.60;99.90;;;;;;10478421;27;85091;-47
2022/07/05 01:42:31;;;;;;;;;;;17.50;99.90;;;;;;10496112;27;85010;-52
2022/07/05 01:47:36;;;;;;;;;;;17.50;99.90;;;;;;10497099;27;83296;-49
2022/07/05 01:52:38;;;;;;;;;;;17.50;99.90;;;;;;10496722;27;84164;-50
2022/07/05 01:57:38;;;;;;;;;;;17.40;1.00;;;;;;10495484;27;83892;-53
2022/07/05 02:02:40;;;;;;;;;;;17.30;99.90;;;;;;10498121;27;83116;-49
2022/07/05 02:07:47;;;;;;;;;;;17.30;1.00;;;;;;10499417;27;83840;-49
2022/07/05 02:12:48;;;;;;;;;;;17.20;1.00;;;;;;10480154;27;85303;-50
2022/07/05 02:17:49;;;;;;;;;;;17.20;1.00;;;;;;10498428;27;84367;-49
2022/07/05 02:22:50;;;;;;;;;;;17.10;1.00;;;;;;10496031;27;86002;-51
2022/07/05 02:27:54;;;;;;;;;;;17.20;1.00;;;;;;10495049;27;85142;-52
2022/07/05 02:32:55;;;;;;;;;;;17.10;1.00;;;;;;10493365;27;85175;-51
2022/07/05 02:37:56;;;;;;;;;;;17.10;1.00;;;;;;10495327;27;84952;-50
2022/07/05 02:42:57;;;;;;;;;;;17.20;1.00;;;;;;10492720;27;83926;-49
2022/07/05 02:47:59;;;;;;;;;;;17.10;1.00;;;;;;10493033;27;85330;-52
2022/07/05 02:53:01;;;;;;;;;;;17.20;1.00;;;;;;10493993;27;85301;-51
2022/07/05 02:58:01;;;;;;;;;;;17.10;1.00;;;;;;10494104;27;85121;-50
2022/07/05 03:03:05;;;;;;;;;;;17.10;1.00;;;;;;10511422;27;84958;-50
2022/07/05 03:08:07;;;;;;;;;;;17.00;1.00;;;;;;10511254;27;86156;-48
2022/07/05 03:13:10;;;;;;;;;;;17.10;1.00;;;;;;10492056;27;85054;-51
2022/07/05 03:18:12;;;;;;;;;;;17.10;1.00;;;;;;10494304;27;85956;-51
2022/07/05 03:23:13;;;;;;;;;;;17.10;1.00;;;;;;10493419;27;86250;-52
2022/07/05 03:28:20;;;;;;;;;;;17.00;1.00;;;;;;10492886;27;86260;-52
2022/07/05 03:33:23;;;;;;;;;;;16.80;1.00;;;;;;10492550;27;84319;-53
2022/07/05 03:38:23;;;;;;;;;;;16.80;1.00;;;;;;10492258;27;86279;-48
2022/07/05 03:43:25;;;;;;;;;;;16.80;1.00;;;;;;10491546;27;85884;-52
2022/07/05 03:48:26;;;;;;;;;;;16.80;1.00;;;;;;10495080;27;83966;-48
2022/07/05 03:53:27;;;;;;;;;;;16.80;1.00;;;;;;10492478;27;86051;-52
2022/07/05 03:58:28;;;;;;;;;;;16.70;1.00;;;;;;10492425;27;85981;-51
2022/07/05 04:03:31;;;;;;;;;;;16.70;1.00;;;;;;10492487;27;85931;-50
2022/07/05 04:08:34;;;;;;;;;;;16.70;1.00;;;;;;10491179;27;85131;-49
2022/07/05 04:13:34;;;;;;;;;;;16.70;1.00;;;;;;10491292;27;85984;-52
2022/07/05 04:18:35;;;;;;;;;;;16.70;1.00;;;;;;10491429;27;85260;-52
2022/07/05 04:23:38;;;;;;;;;;;16.70;1.00;;;;;;10492874;27;85147;-49
2022/07/05 04:28:40;;;;;;;;;;;16.70;1.00;;;;;;10491699;27;84063;-49
2022/07/05 04:33:43;;;;;;;;;;;16.80;1.00;;;;;;10491010;27;85872;-54
2022/07/05 04:38:47;;;;;;;;;;;16.80;1.00;;;;;;10495668;22;83931;-45
2022/07/05 04:43:48;;;;;;;;;;;16.90;1.00;;;;;;10407729;28;85332;-46
2022/07/05 04:48:49;;;;;;;;;;;16.90;1.00;;;;;;10409543;28;84039;-45
2022/07/05 04:53:50;;;;;;;;;;;17.00;1.00;;;;;;10392007;28;86114;-45
2022/07/05 04:58:50;;;;;;;;;;;17.10;1.00;;;;;;10397573;28;84306;-46
2022/07/05 05:03:51;;;;;;;;;;;17.20;1.00;;;;;;10416488;28;83647;-46
2022/07/05 05:08:51;;;;;;;;;;;17.20;1.00;;;;;;10415968;28;84304;-45
2022/07/05 05:13:52;;;;;;;;;;;17.20;1.00;;;;;;10415457;28;84064;-45
2022/07/05 05:18:53;;;;;;;;;;;17.40;1.00;;;;;;10415502;28;83889;-45
2022/07/05 05:23:53;;;;;;;;;;;17.50;99.90;;;;;;10415649;28;83953;-44
2022/07/05 05:28:54;;;;;;;;;;;17.60;99.90;;;;;;10415531;28;83735;-45
2022/07/05 05:33:54;;;;;;;;;;;17.60;1.00;;;;;;10415502;28;84027;-48
2022/07/05 05:38:55;;;;;;;;;;;17.90;1.00;;;;;;10414673;28;84162;-48
2022/07/05 05:43:55;;;;;;;;;;;18.10;1.00;;;;;;10419372;28;84056;-45
2022/07/05 05:48:56;;;;;;;;;;;18.30;1.00;;;;;;10416452;28;84097;-42
2022/07/05 05:53:56;;;;;;;;;;;18.40;1.00;;;;;;10398117;28;83775;-48
2022/07/05 05:58:57;;;;;;;;;;;18.70;22.40;;;;;;10415670;28;83832;-46
2022/07/05 06:03:57;;;;;;;;;;;19.10;1.00;;;;;;10415821;28;83659;-49
2022/07/05 06:08:58;;;;;;;;;;;19.20;1.00;;;;;;10414301;28;83671;-48
2022/07/05 06:13:58;;;;;;;;;;;19.20;1.00;;;;;;10396803;28;85045;-48
2022/07/05 06:18:59;;;;;;;;;;;19.20;1.00;;;;;;10415417;28;83813;-49
2022/07/05 06:24:00;;;;;;;;;;;19.40;1.00;;;;;;10414780;28;84197;-45
2022/07/05 06:29:00;;;;;;;;;;;19.70;1.00;;;;;;10413492;28;84172;-45
2022/07/05 06:34:01;;;;;;;;;;;20.00;28.20;;;;;;10413347;28;84379;-45
2022/07/05 06:39:01;;;;;;;;;;;20.20;1.00;;;;;;10410667;28;85339;-45
2022/07/05 06:44:02;;;;;;;;;;;20.40;1.00;;;;;;10413527;28;83688;-45
2022/07/05 06:49:02;;;;;;;;;;;20.40;99.90;;;;;;10413273;28;83842;-50
2022/07/05 06:54:03;;;;;;;;;;;20.70;55.40;;;;;;10395014;28;84410;-45
2022/07/05 06:59:03;;;;;;;;;;;20.80;99.90;;;;;;10413695;28;84104;-47
2022/07/05 07:04:04;;;;;;;;;;;20.90;99.90;;;;;;10394711;28;83890;-44
2022/07/05 07:09:21;;;;;;;;;;;20.80;1.00;;;;;;10412557;28;87679;-45
2022/07/05 07:14:22;;;;;;;;;;;21.00;1.00;;;;;;10412144;28;83718;-50
2022/07/05 07:19:23;;;;;;;;;;;21.10;99.90;;;;;;10412674;28;84075;-47
2022/07/05 07:24:23;;;;;;;;;;;21.20;1.00;;;;;;10412587;28;84098;-48
2022/07/05 07:29:24;;;;;;;;;;;21.20;1.00;;;;;;10394661;28;84089;-48
2022/07/05 07:34:25;;;;;;;;;;;21.60;1.00;;;;;;10394671;28;84302;-49
2022/07/05 07:39:26;;;;;;;;;;;21.60;1.00;;;;;;10412124;28;84183;-46
2022/07/05 07:44:27;;;;;;;;;;;21.80;99.90;;;;;;10413548;28;84520;-45
2022/07/05 07:49:27;;;;;;;;;;;21.80;1.00;;;;;;10410705;28;85118;-49
2022/07/05 07:54:28;;;;;;;;;;;22.10;1.00;;;;;;10411361;28;84134;-47
2022/07/05 07:59:28;;;;;;;;;;;22.80;1.00;;;;;;10411433;28;83911;-49
2022/07/05 08:04:29;;;;;;;;;;;23.50;1.00;;;;;;10411083;28;84325;-46
2022/07/05 08:09:30;;;;;;;;;;;23.50;99.90;;;;;;10410916;28;83768;-46
2022/07/05 08:14:31;;;;;;;;;;;24.10;99.90;;;;;;10393929;28;83704;-48
2022/07/05 08:24:51;;;;;;;;;;;25.20;64.10;;;;;;10413023;28;83775;-46
2022/07/05 08:29:52;;;;;;;;;;;25.40;1.00;;;;;;10408870;28;85151;-51
2022/07/05 08:34:52;;;;;;;;;;;25.20;1.00;;;;;;10411160;28;83297;-46
2022/07/05 08:39:53;;;;;;;;;;;25.50;1.00;;;;;;10408762;28;83692;-46
2022/07/05 08:44:55;;;;;;;;;;;26.20;1.00;;;;;;10391327;28;86179;-46
2022/07/05 08:49:55;;;;;;;;;;;26.50;1.00;;;;;;10409141;28;84616;-45
2022/07/05 08:54:56;;;;;;;;;;;26.20;1.00;;;;;;10408744;28;84137;-43
2022/07/05 08:59:57;;;;;;;;;;;26.60;1.00;;;;;;10408272;28;84198;-48
2022/07/05 09:04:58;;;;;;;;;;;26.70;1.00;;;;;;10408271;28;83770;-46
2022/07/05 09:09:59;;;;;;;;;;;27.40;1.00;;;;;;10407662;28;83724;-46
2022/07/05 09:15:00;;;;;;;;;;;27.90;1.00;;;;;;10407933;28;84539;-45
2022/07/05 09:20:10;;;;;;;;;;;28.60;1.00;;;;;;10407097;28;83776;-47
2022/07/05 09:25:17;;;;;;;;;;;29.10;1.00;;;;;;10407613;28;84296;-47
2022/07/05 09:30:34;;;;;;;;;;;28.10;1.00;;;;;;10407165;28;84106;-46
2022/07/05 09:35:36;;;;;;;;;;;27.50;1.00;;;;;;10407143;28;84197;-49
2022/07/05 09:40:47;;;;;;;;;;;28.40;1.00;;;;;;10406848;28;84037;-45
2022/07/05 09:46:01;;;;;;;;;;;28.70;1.00;;;;;;10396019;28;84517;-48
2022/07/05 09:51:09;;;;;;;;;;;29.60;1.00;;;;;;10413652;28;83948;-49
2022/07/05 09:56:10;;;;;;;;;;;30.10;1.00;;;;;;10395008;28;85250;-50
2022/07/05 10:01:26;;;;;;;;;;;30.10;1.00;;;;;;10413491;28;84068;-49
2022/07/05 10:06:27;;;;;;;;;;;28.10;1.00;;;;;;10414165;28;83789;-46
2022/07/05 10:11:27;;;;;;;;;;;26.90;1.00;;;;;;10413303;28;85094;-46
2022/07/05 10:16:28;;;;;;;;;;;26.40;1.00;;;;;;10413606;28;84081;-46
2022/07/05 10:21:28;;;;;;;;;;;27.70;1.00;;;;;;10413146;28;83728;-46
2022/07/05 10:26:32;;;;;;;;;;;29.30;1.00;;;;;;10412996;28;84085;-47
2022/07/05 10:31:33;;;;;;;;;;;29.70;1.00;;;;;;10412357;28;83741;-47
2022/07/05 10:36:38;;;;;;;;;;;28.20;1.00;;;;;;10413475;28;84217;-50
2022/07/05 10:41:40;;;;;;;;;;;26.40;1.00;;;;;;10480970;22;83963;-49
2022/07/05 10:46:43;;;;;;;;;;;26.20;1.00;;;;;;10496529;27;83722;-50
2022/07/05 10:51:43;;;;;;;;;;;27.00;1.00;;;;;;10496820;27;83892;-55
2022/07/05 10:57:04;;;;;;;;;;;26.80;1.00;;;;;;10496854;27;85893;-54
2022/07/05 11:02:13;;;;;;;;;;;27.30;1.00;;;;;;10496256;27;83231;-50
2022/07/05 11:07:14;;;;;;;;;;;29.40;1.00;;;;;;10494835;27;84104;-51
2022/07/05 11:12:14;;;;;;;;;;;30.70;1.00;;;;;;10494934;27;86140;-50
2022/07/05 11:17:22;;;;;;;;;;;31.20;1.00;;;;;;10497011;27;84166;-51
2022/07/05 11:22:22;;;;;;;;;;;29.50;1.00;;;;;;10495658;27;83534;-49
2022/07/05 11:27:23;;;;;;;;;;;27.80;1.00;;;;;;10496834;27;84093;-51
2022/07/05 11:32:23;;;;;;;;;;;26.90;1.00;;;;;;10496360;27;83906;-49
2022/07/05 11:37:28;;;;;;;;;;;26.80;1.00;;;;;;10477004;27;86596;-48
2022/07/05 11:42:28;;;;;;;;;;;26.20;1.00;;;;;;10496062;27;83834;-51
2022/07/05 11:47:29;;;;;;;;;;;25.80;1.00;;;;;;10495733;27;84123;-52
2022/07/05 11:52:30;;;;;;;;;;;25.50;1.00;;;;;;10495062;27;83293;-49
2022/07/05 11:57:31;;;;;;;;;;;26.90;1.00;;;;;;10494819;27;83880;-52
2022/07/05 12:02:42;;;;;;;;;;;27.50;1.00;;;;;;10493759;27;83328;-53
2022/07/05 12:07:48;;;;;;;;;;;27.20;1.00;;;;;;10494109;27;83267;-51
2022/07/05 12:12:49;;;;;;;;;;;26.90;1.00;;;;;;10496897;27;83463;-49
2022/07/05 12:17:50;;;;;;;;;;;26.10;1.00;;;;;;10496954;27;83776;-50
2022/07/05 12:22:51;;;;;;;;;;;25.50;1.00;;;;;;10494795;27;83778;-52
2022/07/05 12:27:53;;;;;;;;;;;25.40;1.00;;;;;;10493393;27;84165;-53
2022/07/05 12:33:12;;;;;;;;;;;26.40;1.00;;;;;;10494246;27;84125;-54
2022/07/05 12:38:19;;;;;;;;;;;27.50;1.00;;;;;;10494442;27;84133;-50
2022/07/05 12:43:20;;;;;;;;;;;27.60;1.00;;;;;;10493298;27;84143;-50
2022/07/05 12:48:29;;;;;;;;;;;28.80;1.00;;;;;;10493281;27;83725;-50
2022/07/05 12:58:50;;;;;;;;;;;29.50;1.00;;;;;;10470505;27;84492;-50
2022/07/05 13:04:00;;;;;;;;;;;29.60;1.00;;;;;;10479883;27;84192;-53
2022/07/05 13:09:01;;;;;;;;;;;29.10;1.00;;;;;;10493776;27;83431;-54
2022/07/05 13:14:01;;;;;;;;;;;29.10;1.00;;;;;;10478189;27;84147;-52
2022/07/05 13:19:09;;;;;;;;;;;28.20;1.00;;;;;;10491414;27;83771;-54
2022/07/05 13:24:10;;;;;;;;;;;27.60;1.00;;;;;;10483107;27;83964;-52
2022/07/05 13:29:10;;;;;;;;;;;28.00;1.00;;;;;;10461461;27;84294;-53
2022/07/05 13:34:11;;;;;;;;;;;27.60;1.00;;;;;;10483374;27;83582;-55
2022/07/05 13:39:12;;;;;;;;;;;27.20;1.00;;;;;;10488967;27;83538;-57
2022/07/05 13:44:12;;;;;;;;;;;27.20;1.00;;;;;;10485257;27;83401;-52
2022/07/05 13:49:13;;;;;;;;;;;26.90;1.00;;;;;;10492194;27;83971;-50
2022/07/05 13:54:13;;;;;;;;;;;27.90;1.00;;;;;;10485331;27;83793;-50
2022/07/05 13:59:14;;;;;;;;;;;28.20;1.00;;;;;;10476195;27;85733;-56
2022/07/05 14:04:14;;;;;;;;;;;27.00;1.00;;;;;;10458197;27;83349;-56
2022/07/05 14:09:15;;;;;;;;;;;26.30;1.00;;;;;;10478799;27;83472;-57
2022/07/05 14:14:16;;;;;;;;;;;26.00;1.00;;;;;;10474145;27;84393;-53
2022/07/05 14:19:16;;;;;;;;;;;25.80;1.00;;;;;;10479765;27;84579;-52
2022/07/05 14:24:17;;;;;;;;;;;25.50;1.00;;;;;;10479753;27;84218;-50
2022/07/05 14:29:17;;;;;;;;;;;25.30;1.00;;;;;;10482296;27;83753;-50
2022/07/05 14:34:18;;;;;;;;;;;25.20;1.00;;;;;;10478777;27;83850;-52
2022/07/05 14:39:19;;;;;;;;;;;25.10;1.00;;;;;;10479019;27;84123;-51
2022/07/05 14:44:20;;;;;;;;;;;25.50;1.00;;;;;;10483148;27;84089;-52
2022/07/05 14:49:20;;;;;;;;;;;25.50;1.00;;;;;;10478792;27;83984;-54
2022/07/05 14:54:21;;;;;;;;;;;25.00;1.00;;;;;;10493161;27;84105;-55
2022/07/05 14:59:21;;;;;;;;;;;24.80;1.00;;;;;;10492867;27;84267;-52
2022/07/05 15:04:22;;;;;;;;;;;24.90;1.00;;;;;;10481688;27;84074;-49
2022/07/05 15:09:22;;;;;;;;;;;24.70;1.00;;;;;;10483664;27;84196;-53
2022/07/05 15:14:23;;;;;;;;;;;24.80;1.00;;;;;;10490384;27;83378;-51
2022/07/05 15:19:23;;;;;;;;;;;24.20;1.00;;;;;;10484671;27;84106;-49
2022/07/05 15:24:25;;;;;;;;;;;24.20;1.00;;;;;;10476548;27;84071;-49
2022/07/05 15:29:28;;;;;;;;;;;24.50;1.00;;;;;;10475610;27;83817;-53
2022/07/05 15:34:29;;;;;;;;;;;24.20;1.00;;;;;;10474265;27;83474;-52
2022/07/05 15:39:30;;;;;;;;;;;24.10;1.00;;;;;;10474267;27;83294;-52
2022/07/05 15:44:30;;;;;;;;;;;24.00;1.00;;;;;;10490773;27;84332;-52
2022/07/05 15:49:31;;;;;;;;;;;23.90;1.00;;;;;;10460675;27;83497;-52
2022/07/05 15:54:33;;;;;;;;;;;23.80;1.00;;;;;;10466701;27;83588;-52
2022/07/05 15:59:33;;;;;;;;;;;23.70;1.00;;;;;;10462684;27;84159;-49
2022/07/05 16:04:36;;;;;;;;;;;23.90;1.00;;;;;;10481201;27;86096;-53
2022/07/05 16:09:36;;;;;;;;;;;23.90;1.00;;;;;;10462365;27;83510;-55
2022/07/05 16:14:38;;;;;;;;;;;23.70;1.00;;;;;;10480717;27;104067;-49
2022/07/05 16:19:39;;;;;;;;;;;23.90;1.00;;;;;;10483977;27;83709;-51
2022/07/05 16:24:39;;;;;;;;;;;23.90;1.00;;;;;;10478095;27;83923;-53
2022/07/05 16:29:40;;;;;;;;;;;23.80;1.00;;;;;;10488991;27;84213;-49
2022/07/05 16:34:41;;;;;;;;;;;23.60;1.00;;;;;;10482545;27;84047;-51
2022/07/05 16:39:41;;;;;;;;;;;23.50;1.00;;;;;;10487139;22;83439;-48
2022/07/05 16:44:42;;;;;;;;;;;23.50;26.90;;;;;;10353804;28;83820;-52
2022/07/05 16:49:42;;;;;;;;;;;23.20;70.00;;;;;;10327367;28;83438;-50
2022/07/05 16:54:43;;;;;;;;;;;22.90;99.90;;;;;;10336841;28;83950;-50
2022/07/05 16:59:43;;;;;;;;;;;22.70;99.90;;;;;;10322012;28;83938;-50
2022/07/05 17:04:44;;;;;;;;;;;22.50;99.90;;;;;;10338823;28;83838;-53
2022/07/05 17:09:44;;;;;;;;;;;22.60;99.90;;;;;;10324163;28;83453;-49
2022/07/05 17:14:45;;;;;;;;;;;22.50;99.90;;;;;;10331762;28;84021;-49
2022/07/05 17:19:45;;;;;;;;;;;22.40;99.90;;;;;;10317474;28;84936;-50
2022/07/05 17:24:46;;;;;;;;;;;22.20;99.90;;;;;;10316573;28;96713;-49
2022/07/05 17:29:47;;;;;;;;;;;22.00;99.90;;;;;;10324813;28;84209;-54
2022/07/05 17:34:47;;;;;;;;;;;21.70;99.90;;;;;;10323383;28;84769;-55
2022/07/05 17:39:48;;;;;;;;;;;21.40;99.90;;;;;;10305184;28;84030;-52
2022/07/05 17:44:48;;;;;;;;;;;21.30;1.00;;;;;;10329821;28;84141;-58
2022/07/05 17:49:49;;;;;;;;;;;21.30;1.00;;;;;;10335426;28;85766;-52
2022/07/05 17:54:49;;;;;;;;;;;21.50;1.00;;;;;;10339403;28;83253;-50
2022/07/05 17:59:50;;;;;;;;;;;21.50;1.00;;;;;;10333044;28;83873;-52
2022/07/05 18:04:50;;;;;;;;;;;21.50;1.00;;;;;;10316376;28;84143;-51
2022/07/05 18:09:51;;;;;;;;;;;21.30;1.00;;;;;;10304376;28;84108;-50
2022/07/05 18:14:51;;;;;;;;;;;21.30;1.00;;;;;;10308487;28;85133;-56
2022/07/05 18:19:52;;;;;;;;;;;21.20;1.00;;;;;;10348920;28;85156;-50
2022/07/05 18:24:52;;;;;;;;;;;21.20;1.00;;;;;;10340361;28;84054;-50
2022/07/05 18:29:53;;;;;;;;;;;21.10;1.00;;;;;;10333916;28;83987;-46
2022/07/05 18:34:53;;;;;;;;;;;21.10;1.00;;;;;;10325984;28;84077;-48
2022/07/05 18:39:54;;;;;;;;;;;20.90;1.00;;;;;;10329516;28;84012;-53
2022/07/05 18:44:55;;;;;;;;;;;20.70;1.00;;;;;;10312911;28;84016;-52
2022/07/05 18:49:55;;;;;;;;;;;20.60;1.00;;;;;;10300123;28;83901;-52
2022/07/05 18:54:56;;;;;;;;;;;20.60;1.00;;;;;;10310113;28;83322;-51
2022/07/05 18:59:56;;;;;;;;;;;20.50;1.00;;;;;;10326124;28;83385;-51
2022/07/05 19:04:57;;;;;;;;;;;20.40;1.00;;;;;;10309577;28;84141;-49
2022/07/05 19:15:17;;;;;;;;;;;20.10;1.00;;;;;;10309802;28;83463;-49
2022/07/05 19:20:17;;;;;;;;;;;20.00;1.00;;;;;;10300745;28;84982;-51
2022/07/05 19:25:18;;;;;;;;;;;19.90;1.00;;;;;;10299304;28;83358;-51
2022/07/05 19:30:19;;;;;;;;;;;19.80;1.00;;;;;;10306457;28;84443;-54
2022/07/05 19:35:19;;;;;;;;;;;19.80;1.00;;;;;;10310846;28;83967;-52
2022/07/05 19:40:20;;;;;;;;;;;19.70;1.00;;;;;;10304541;28;83986;-49
2022/07/05 19:45:22;;;;;;;;;;;19.60;2.80;;;;;;10309059;28;84755;-49
2022/07/05 19:50:22;;;;;;;;;;;19.60;81.90;;;;;;10297338;28;84095;-51
2022/07/05 19:55:24;;;;;;;;;;;19.50;99.90;;;;;;10299177;28;83437;-48
2022/07/05 20:00:24;;;;;;;;;;;19.50;99.90;;;;;;10293239;28;83676;-48
2022/07/05 20:05:26;;;;;;;;;;;19.50;99.90;;;;;;10324810;28;84090;-49
2022/07/05 20:10:26;;;;;;;;;;;19.40;99.90;;;;;;10312412;28;84236;-47
2022/07/05 20:15:27;;;;;;;;;;;19.30;99.90;;;;;;10328115;28;83632;-49
2022/07/05 20:20:27;;;;;;;;;;;19.10;1.00;;;;;;10327869;28;83672;-51
2022/07/05 20:25:28;;;;;;;;;;;18.90;99.90;;;;;;10327527;28;84025;-50
2022/07/05 20:30:28;;;;;;;;;;;18.70;1.00;;;;;;10327359;28;84368;-51
2022/07/05 20:35:29;;;;;;;;;;;18.60;99.90;;;;;;10331257;28;86786;-49
2022/07/05 20:40:30;;;;;;;;;;;18.40;99.90;;;;;;10327474;28;83876;-49
2022/07/05 20:45:30;;;;;;;;;;;18.20;1.00;;;;;;10326708;28;83842;-54
2022/07/05 20:50:31;;;;;;;;;;;18.20;99.90;;;;;;10326453;28;84289;-52
2022/07/05 20:55:32;;;;;;;;;;;18.10;1.00;;;;;;10326265;28;83199;-47
2022/07/05 21:00:32;;;;;;;;;;;18.00;99.90;;;;;;10324573;28;83904;-47
2022/07/05 21:05:33;;;;;;;;;;;18.00;1.00;;;;;;10324306;28;83932;-46
2022/07/05 21:10:34;;;;;;;;;;;17.80;99.90;;;;;;10320462;28;84156;-50
2022/07/05 21:15:34;;;;;;;;;;;17.70;1.00;;;;;;10325073;28;84135;-50
2022/07/05 21:20:35;;;;;;;;;;;17.60;99.90;;;;;;10307410;28;84258;-49
2022/07/05 21:25:36;;;;;;;;;;;17.70;99.90;;;;;;10325277;28;84713;-50
2022/07/05 21:30:36;;;;;;;;;;;17.60;1.00;;;;;;10323173;28;85042;-48
2022/07/05 21:35:37;;;;;;;;;;;17.60;1.00;;;;;;10326046;28;83838;-49
2022/07/05 21:40:37;;;;;;;;;;;17.60;1.00;;;;;;10313466;28;83644;-52
2022/07/05 21:45:38;;;;;;;;;;;17.50;1.00;;;;;;10321394;28;85108;-50
2022/07/05 21:50:38;;;;;;;;;;;17.40;1.00;;;;;;10320207;28;84530;-50
2022/07/05 21:55:39;;;;;;;;;;;17.40;1.00;;;;;;10331554;28;84269;-47
2022/07/05 22:05:59;;;;;;;;;;;17.30;1.00;;;;;;10332246;28;83477;-50
2022/07/05 22:16:19;;;;;;;;;;;17.20;1.00;;;;;;10330950;28;84162;-47
2022/07/05 22:21:19;;;;;;;;;;;17.10;99.90;;;;;;10330502;28;83920;-52
2022/07/05 22:26:20;;;;;;;;;;;17.10;99.90;;;;;;10330903;28;83530;-48
2022/07/05 22:31:20;;;;;;;;;;;17.10;99.90;;;;;;10330786;28;83797;-47
2022/07/05 22:36:21;;;;;;;;;;;17.00;1.00;;;;;;10324497;28;84138;-46
2022/07/05 22:41:21;;;;;;;;;;;16.80;1.00;;;;;;10358192;22;84582;-52
2022/07/05 22:46:22;;;;;;;;;;;16.60;1.00;;;;;;10353210;28;83499;-50
2022/07/05 22:51:22;;;;;;;;;;;16.60;1.00;;;;;;10339052;28;83957;-52
2022/07/05 22:56:23;;;;;;;;;;;16.50;1.00;;;;;;10330084;28;84178;-50
2022/07/05 23:01:26;;;;;;;;;;;16.50;1.00;;;;;;10329214;28;83689;-53
2022/07/05 23:06:27;;;;;;;;;;;16.50;1.00;;;;;;10329997;28;84089;-51
2022/07/05 23:11:28;;;;;;;;;;;16.50;1.00;;;;;;10329407;28;83988;-52
2022/07/05 23:16:29;;;;;;;;;;;16.40;1.00;;;;;;10331014;28;84447;-51
2022/07/05 23:21:29;;;;;;;;;;;16.20;85.90;;;;;;10329339;28;83478;-54
2022/07/05 23:26:31;;;;;;;;;;;16.10;99.90;;;;;;10329308;28;83370;-52
2022/07/05 23:31:31;;;;;;;;;;;16.00;99.90;;;;;;10329232;28;83255;-50
2022/07/05 23:36:32;;;;;;;;;;;16.00;99.90;;;;;;10328579;28;83840;-50
2022/07/05 23:41:32;;;;;;;;;;;16.00;99.90;;;;;;10327735;28;83930;-50
2022/07/05 23:46:33;;;;;;;;;;;15.80;99.90;;;;;;10327961;28;89042;-54
2022/07/05 23:51:33;;;;;;;;;;;15.70;99.90;;;;;;10329172;28;86279;-52
2022/07/05 23:56:34;;;;;;;;;;;15.60;99.90;;;;;;10310912;28;86289;-52
